sensor_id;sensor_type;location;lat;lon;timestamp;P1;durP1;ratioP1;P2;durP2;ratioP2
61254;SDS011;47128;47.530;8.584;2024-01-27T00:02:20;6.13;;;1.40;;
61254;SDS011;47128;47.530;8.584;2024-01-27T00:04:46;1.67;;;0.90;;
61254;SDS011;47128;47.530;8.584;2024-01-27T00:07:13;6.35;;;1.40;;
61254;SDS011;47128;47.530;8.584;2024-01-27T00:09:39;6.97;;;1.30;;
61254;SDS011;47128;47.530;8.584;2024-01-27T00:12:06;2.17;;;1.08;;
61254;SDS011;47128;47.530;8.584;2024-01-27T00:14:32;3.78;;;1.40;;
61254;SDS011;47128;47.530;8.584;2024-01-27T00:16:59;2.65;;;1.38;;
61254;SDS011;47128;47.530;8.584;2024-01-27T00:19:25;3.22;;;1.40;;
61254;SDS011;47128;47.530;8.584;2024-01-27T00:21:51;3.25;;;1.27;;
61254;SDS011;47128;47.530;8.584;2024-01-27T00:24:17;4.28;;;1.25;;
61254;SDS011;47128;47.530;8.584;2024-01-27T00:26:43;4.88;;;1.80;;
61254;SDS011;47128;47.530;8.584;2024-01-27T00:29:09;2.20;;;1.15;;
61254;SDS011;47128;47.530;8.584;2024-01-27T00:31:35;4.57;;;1.20;;
61254;SDS011;47128;47.530;8.584;2024-01-27T00:34:01;3.08;;;1.27;;
61254;SDS011;47128;47.530;8.584;2024-01-27T00:36:27;5.45;;;1.13;;
61254;SDS011;47128;47.530;8.584;2024-01-27T00:38:53;6.95;;;1.40;;
61254;SDS011;47128;47.530;8.584;2024-01-27T00:41:19;2.90;;;1.20;;
61254;SDS011;47128;47.530;8.584;2024-01-27T00:43:45;3.20;;;1.20;;
61254;SDS011;47128;47.530;8.584;2024-01-27T00:46:11;3.58;;;1.40;;
61254;SDS011;47128;47.530;8.584;2024-01-27T00:48:37;4.50;;;1.30;;
61254;SDS011;47128;47.530;8.584;2024-01-27T00:51:03;3.83;;;1.60;;
61254;SDS011;47128;47.530;8.584;2024-01-27T00:53:29;7.63;;;1.40;;
61254;SDS011;47128;47.530;8.584;2024-01-27T00:55:55;3.53;;;1.30;;
61254;SDS011;47128;47.530;8.584;2024-01-27T00:58:21;4.15;;;1.25;;
61254;SDS011;47128;47.530;8.584;2024-01-27T01:00:47;3.63;;;1.70;;
61254;SDS011;47128;47.530;8.584;2024-01-27T01:03:13;4.20;;;2.30;;
61254;SDS011;47128;47.530;8.584;2024-01-27T01:05:39;2.60;;;1.13;;
61254;SDS011;47128;47.530;8.584;2024-01-27T01:08:05;5.00;;;1.15;;
61254;SDS011;47128;47.530;8.584;2024-01-27T01:10:31;3.75;;;1.20;;
61254;SDS011;47128;47.530;8.584;2024-01-27T01:12:58;2.63;;;1.02;;
61254;SDS011;47128;47.530;8.584;2024-01-27T01:15:24;5.35;;;1.27;;
61254;SDS011;47128;47.530;8.584;2024-01-27T01:17:50;2.28;;;1.17;;
61254;SDS011;47128;47.530;8.584;2024-01-27T01:20:16;5.53;;;1.20;;
61254;SDS011;47128;47.530;8.584;2024-01-27T01:22:42;8.25;;;1.83;;
61254;SDS011;47128;47.530;8.584;2024-01-27T01:25:08;3.38;;;1.25;;
61254;SDS011;47128;47.530;8.584;2024-01-27T01:27:34;3.53;;;1.23;;
61254;SDS011;47128;47.530;8.584;2024-01-27T01:30:00;6.55;;;1.35;;
61254;SDS011;47128;47.530;8.584;2024-01-27T01:32:26;2.88;;;1.33;;
61254;SDS011;47128;47.530;8.584;2024-01-27T01:34:52;5.75;;;1.48;;
61254;SDS011;47128;47.530;8.584;2024-01-27T01:37:18;3.63;;;1.23;;
61254;SDS011;47128;47.530;8.584;2024-01-27T01:39:44;4.60;;;1.58;;
61254;SDS011;47128;47.530;8.584;2024-01-27T01:42:10;2.70;;;1.30;;
61254;SDS011;47128;47.530;8.584;2024-01-27T01:44:36;2.70;;;1.25;;
61254;SDS011;47128;47.530;8.584;2024-01-27T01:47:02;1.67;;;1.23;;
61254;SDS011;47128;47.530;8.584;2024-01-27T01:49:28;2.95;;;1.33;;
61254;SDS011;47128;47.530;8.584;2024-01-27T01:51:54;3.53;;;1.05;;
61254;SDS011;47128;47.530;8.584;2024-01-27T01:54:20;4.78;;;1.40;;
61254;SDS011;47128;47.530;8.584;2024-01-27T01:56:47;4.50;;;1.42;;
61254;SDS011;47128;47.530;8.584;2024-01-27T01:59:13;3.10;;;1.60;;
61254;SDS011;47128;47.530;8.584;2024-01-27T02:01:39;3.10;;;1.48;;
61254;SDS011;47128;47.530;8.584;2024-01-27T02:04:05;2.83;;;1.58;;
61254;SDS011;47128;47.530;8.584;2024-01-27T02:06:31;2.67;;;1.48;;
61254;SDS011;47128;47.530;8.584;2024-01-27T02:09:00;4.35;;;1.33;;
61254;SDS011;47128;47.530;8.584;2024-01-27T02:11:26;6.05;;;1.35;;
61254;SDS011;47128;47.530;8.584;2024-01-27T02:13:52;6.57;;;1.80;;
61254;SDS011;47128;47.530;8.584;2024-01-27T02:16:18;4.40;;;1.25;;
61254;SDS011;47128;47.530;8.584;2024-01-27T02:18:44;3.35;;;1.10;;
61254;SDS011;47128;47.530;8.584;2024-01-27T02:21:10;2.08;;;1.17;;
61254;SDS011;47128;47.530;8.584;2024-01-27T02:23:36;4.40;;;1.38;;
61254;SDS011;47128;47.530;8.584;2024-01-27T02:26:02;8.23;;;1.48;;
61254;SDS011;47128;47.530;8.584;2024-01-27T02:28:30;2.70;;;1.20;;
61254;SDS011;47128;47.530;8.584;2024-01-27T02:30:58;3.10;;;1.38;;
61254;SDS011;47128;47.530;8.584;2024-01-27T02:33:27;1.80;;;1.30;;
61254;SDS011;47128;47.530;8.584;2024-01-27T02:35:53;2.10;;;1.38;;
61254;SDS011;47128;47.530;8.584;2024-01-27T02:38:19;3.50;;;1.98;;
61254;SDS011;47128;47.530;8.584;2024-01-27T02:40:45;6.90;;;1.90;;
61254;SDS011;47128;47.530;8.584;2024-01-27T02:43:12;7.75;;;1.90;;
61254;SDS011;47128;47.530;8.584;2024-01-27T02:45:38;5.55;;;2.30;;
61254;SDS011;47128;47.530;8.584;2024-01-27T02:48:04;4.40;;;1.55;;
61254;SDS011;47128;47.530;8.584;2024-01-27T02:50:30;4.35;;;1.58;;
61254;SDS011;47128;47.530;8.584;2024-01-27T02:52:56;3.47;;;1.60;;
61254;SDS011;47128;47.530;8.584;2024-01-27T02:55:22;2.05;;;1.50;;
61254;SDS011;47128;47.530;8.584;2024-01-27T02:57:48;3.28;;;1.40;;
61254;SDS011;47128;47.530;8.584;2024-01-27T03:00:14;3.45;;;1.50;;
61254;SDS011;47128;47.530;8.584;2024-01-27T03:02:40;2.80;;;1.30;;
61254;SDS011;47128;47.530;8.584;2024-01-27T03:05:06;3.42;;;1.30;;
61254;SDS011;47128;47.530;8.584;2024-01-27T03:07:32;3.20;;;1.63;;
61254;SDS011;47128;47.530;8.584;2024-01-27T03:09:58;3.72;;;1.40;;
61254;SDS011;47128;47.530;8.584;2024-01-27T03:12:24;4.50;;;1.65;;
61254;SDS011;47128;47.530;8.584;2024-01-27T03:14:50;4.07;;;1.48;;
61254;SDS011;47128;47.530;8.584;2024-01-27T03:17:16;3.05;;;1.52;;
61254;SDS011;47128;47.530;8.584;2024-01-27T03:19:42;3.60;;;1.55;;
61254;SDS011;47128;47.530;8.584;2024-01-27T03:22:09;2.10;;;1.40;;
61254;SDS011;47128;47.530;8.584;2024-01-27T03:24:35;4.80;;;1.33;;
61254;SDS011;47128;47.530;8.584;2024-01-27T03:27:02;3.53;;;1.73;;
61254;SDS011;47128;47.530;8.584;2024-01-27T03:29:28;3.75;;;1.48;;
61254;SDS011;47128;47.530;8.584;2024-01-27T03:31:56;2.72;;;1.40;;
61254;SDS011;47128;47.530;8.584;2024-01-27T03:34:22;6.18;;;1.70;;
61254;SDS011;47128;47.530;8.584;2024-01-27T03:36:50;3.40;;;1.20;;
61254;SDS011;47128;47.530;8.584;2024-01-27T03:39:16;5.03;;;1.58;;
61254;SDS011;47128;47.530;8.584;2024-01-27T03:41:42;4.95;;;1.90;;
61254;SDS011;47128;47.530;8.584;2024-01-27T03:44:08;3.40;;;2.17;;
61254;SDS011;47128;47.530;8.584;2024-01-27T03:46:34;5.78;;;2.20;;
61254;SDS011;47128;47.530;8.584;2024-01-27T03:49:00;6.93;;;2.00;;
61254;SDS011;47128;47.530;8.584;2024-01-27T03:51:26;7.35;;;1.70;;
61254;SDS011;47128;47.530;8.584;2024-01-27T03:53:52;3.53;;;1.70;;
61254;SDS011;47128;47.530;8.584;2024-01-27T03:56:18;3.05;;;1.73;;
61254;SDS011;47128;47.530;8.584;2024-01-27T03:58:45;4.07;;;1.83;;
61254;SDS011;47128;47.530;8.584;2024-01-27T04:01:11;4.68;;;2.10;;
61254;SDS011;47128;47.530;8.584;2024-01-27T04:03:37;4.70;;;1.92;;
61254;SDS011;47128;47.530;8.584;2024-01-27T04:06:03;3.45;;;1.65;;
61254;SDS011;47128;47.530;8.584;2024-01-27T04:08:32;10.50;;;4.18;;
61254;SDS011;47128;47.530;8.584;2024-01-27T04:10:58;9.18;;;2.85;;
61254;SDS011;47128;47.530;8.584;2024-01-27T04:13:24;6.05;;;2.75;;
61254;SDS011;47128;47.530;8.584;2024-01-27T04:15:50;5.50;;;2.00;;
61254;SDS011;47128;47.530;8.584;2024-01-27T04:18:16;4.25;;;2.13;;
61254;SDS011;47128;47.530;8.584;2024-01-27T04:20:42;4.65;;;1.75;;
61254;SDS011;47128;47.530;8.584;2024-01-27T04:23:10;3.58;;;1.63;;
61254;SDS011;47128;47.530;8.584;2024-01-27T04:25:36;4.28;;;1.92;;
61254;SDS011;47128;47.530;8.584;2024-01-27T04:28:02;7.38;;;2.38;;
61254;SDS011;47128;47.530;8.584;2024-01-27T04:30:28;2.50;;;1.60;;
61254;SDS011;47128;47.530;8.584;2024-01-27T04:32:54;4.85;;;1.80;;
61254;SDS011;47128;47.530;8.584;2024-01-27T04:35:20;3.65;;;2.00;;
61254;SDS011;47128;47.530;8.584;2024-01-27T04:37:46;4.88;;;2.05;;
61254;SDS011;47128;47.530;8.584;2024-01-27T04:40:12;5.47;;;1.77;;
61254;SDS011;47128;47.530;8.584;2024-01-27T04:42:38;5.68;;;2.60;;
61254;SDS011;47128;47.530;8.584;2024-01-27T04:45:05;7.75;;;3.70;;
61254;SDS011;47128;47.530;8.584;2024-01-27T04:47:31;4.82;;;2.05;;
61254;SDS011;47128;47.530;8.584;2024-01-27T04:49:57;3.80;;;2.30;;
61254;SDS011;47128;47.530;8.584;2024-01-27T04:52:23;4.85;;;2.40;;
61254;SDS011;47128;47.530;8.584;2024-01-27T04:54:50;5.40;;;2.30;;
61254;SDS011;47128;47.530;8.584;2024-01-27T04:57:17;5.03;;;2.40;;
61254;SDS011;47128;47.530;8.584;2024-01-27T04:59:43;9.65;;;3.78;;
61254;SDS011;47128;47.530;8.584;2024-01-27T05:02:09;11.52;;;3.13;;
61254;SDS011;47128;47.530;8.584;2024-01-27T05:04:37;31.98;;;4.70;;
61254;SDS011;47128;47.530;8.584;2024-01-27T05:07:03;15.25;;;3.38;;
61254;SDS011;47128;47.530;8.584;2024-01-27T05:09:30;33.20;;;5.60;;
61254;SDS011;47128;47.530;8.584;2024-01-27T05:11:56;20.90;;;4.28;;
61254;SDS011;47128;47.530;8.584;2024-01-27T05:14:22;31.10;;;3.45;;
61254;SDS011;47128;47.530;8.584;2024-01-27T05:16:48;30.95;;;3.95;;
61254;SDS011;47128;47.530;8.584;2024-01-27T05:19:14;68.22;;;5.88;;
61254;SDS011;47128;47.530;8.584;2024-01-27T05:21:42;25.35;;;4.90;;
61254;SDS011;47128;47.530;8.584;2024-01-27T05:24:08;48.25;;;4.95;;
61254;SDS011;47128;47.530;8.584;2024-01-27T05:26:34;46.53;;;4.90;;
61254;SDS011;47128;47.530;8.584;2024-01-27T05:29:00;43.47;;;5.18;;
61254;SDS011;47128;47.530;8.584;2024-01-27T05:31:26;108.38;;;11.27;;
61254;SDS011;47128;47.530;8.584;2024-01-27T05:33:52;59.40;;;5.95;;
61254;SDS011;47128;47.530;8.584;2024-01-27T05:36:18;193.85;;;12.27;;
61254;SDS011;47128;47.530;8.584;2024-01-27T05:38:44;195.45;;;12.65;;
61254;SDS011;47128;47.530;8.584;2024-01-27T05:41:10;160.18;;;13.50;;
61254;SDS011;47128;47.530;8.584;2024-01-27T05:43:36;232.57;;;13.13;;
61254;SDS011;47128;47.530;8.584;2024-01-27T05:46:02;186.98;;;13.85;;
61254;SDS011;47128;47.530;8.584;2024-01-27T05:48:28;89.80;;;6.82;;
61254;SDS011;47128;47.530;8.584;2024-01-27T05:50:55;143.77;;;14.43;;
61254;SDS011;47128;47.530;8.584;2024-01-27T05:53:21;123.55;;;8.57;;
61254;SDS011;47128;47.530;8.584;2024-01-27T05:55:47;133.55;;;9.95;;
61254;SDS011;47128;47.530;8.584;2024-01-27T05:58:14;132.07;;;8.77;;
61254;SDS011;47128;47.530;8.584;2024-01-27T06:00:42;133.80;;;8.35;;
61254;SDS011;47128;47.530;8.584;2024-01-27T06:03:09;100.32;;;8.52;;
61254;SDS011;47128;47.530;8.584;2024-01-27T06:05:35;178.52;;;11.52;;
61254;SDS011;47128;47.530;8.584;2024-01-27T06:08:01;124.80;;;9.50;;
61254;SDS011;47128;47.530;8.584;2024-01-27T06:10:27;317.40;;;20.42;;
61254;SDS011;47128;47.530;8.584;2024-01-27T06:12:53;182.35;;;12.00;;
61254;SDS011;47128;47.530;8.584;2024-01-27T06:15:19;169.43;;;15.02;;
61254;SDS011;47128;47.530;8.584;2024-01-27T06:17:46;102.78;;;10.05;;
61254;SDS011;47128;47.530;8.584;2024-01-27T06:20:12;60.72;;;7.60;;
61254;SDS011;47128;47.530;8.584;2024-01-27T06:22:38;123.80;;;9.55;;
61254;SDS011;47128;47.530;8.584;2024-01-27T06:25:05;197.15;;;15.02;;
61254;SDS011;47128;47.530;8.584;2024-01-27T06:27:31;130.40;;;9.20;;
61254;SDS011;47128;47.530;8.584;2024-01-27T06:29:57;79.60;;;6.32;;
61254;SDS011;47128;47.530;8.584;2024-01-27T06:32:23;80.82;;;7.22;;
61254;SDS011;47128;47.530;8.584;2024-01-27T06:34:49;66.35;;;7.07;;
61254;SDS011;47128;47.530;8.584;2024-01-27T06:37:16;108.38;;;9.93;;
61254;SDS011;47128;47.530;8.584;2024-01-27T06:39:42;68.10;;;7.05;;
61254;SDS011;47128;47.530;8.584;2024-01-27T06:42:08;108.40;;;14.55;;
61254;SDS011;47128;47.530;8.584;2024-01-27T06:44:34;129.02;;;10.40;;
61254;SDS011;47128;47.530;8.584;2024-01-27T06:47:00;109.65;;;9.82;;
61254;SDS011;47128;47.530;8.584;2024-01-27T06:49:26;111.50;;;11.40;;
61254;SDS011;47128;47.530;8.584;2024-01-27T06:51:52;84.28;;;8.07;;
61254;SDS011;47128;47.530;8.584;2024-01-27T06:54:18;94.82;;;7.95;;
61254;SDS011;47128;47.530;8.584;2024-01-27T06:56:44;74.28;;;7.03;;
61254;SDS011;47128;47.530;8.584;2024-01-27T06:59:10;67.25;;;7.22;;
61254;SDS011;47128;47.530;8.584;2024-01-27T07:01:37;85.35;;;6.85;;
61254;SDS011;47128;47.530;8.584;2024-01-27T07:04:03;82.68;;;8.98;;
61254;SDS011;47128;47.530;8.584;2024-01-27T07:06:30;104.60;;;7.45;;
61254;SDS011;47128;47.530;8.584;2024-01-27T07:08:56;92.68;;;8.25;;
61254;SDS011;47128;47.530;8.584;2024-01-27T07:11:22;46.50;;;5.00;;
61254;SDS011;47128;47.530;8.584;2024-01-27T07:13:48;63.00;;;6.57;;
61254;SDS011;47128;47.530;8.584;2024-01-27T07:16:14;73.07;;;7.20;;
61254;SDS011;47128;47.530;8.584;2024-01-27T07:18:40;78.07;;;9.98;;
61254;SDS011;47128;47.530;8.584;2024-01-27T07:21:06;75.40;;;7.22;;
61254;SDS011;47128;47.530;8.584;2024-01-27T07:23:32;88.75;;;6.95;;
61254;SDS011;47128;47.530;8.584;2024-01-27T07:26:00;64.03;;;5.93;;
61254;SDS011;47128;47.530;8.584;2024-01-27T07:28:28;104.20;;;9.88;;
61254;SDS011;47128;47.530;8.584;2024-01-27T07:30:54;69.70;;;6.68;;
61254;SDS011;47128;47.530;8.584;2024-01-27T07:33:20;105.30;;;11.70;;
61254;SDS011;47128;47.530;8.584;2024-01-27T07:35:46;136.85;;;9.98;;
61254;SDS011;47128;47.530;8.584;2024-01-27T07:38:12;81.15;;;6.30;;
61254;SDS011;47128;47.530;8.584;2024-01-27T07:40:38;74.63;;;8.23;;
61254;SDS011;47128;47.530;8.584;2024-01-27T07:43:04;116.88;;;13.63;;
61254;SDS011;47128;47.530;8.584;2024-01-27T07:45:31;79.13;;;8.45;;
61254;SDS011;47128;47.530;8.584;2024-01-27T07:47:58;89.05;;;8.43;;
61254;SDS011;47128;47.530;8.584;2024-01-27T07:50:24;109.78;;;11.13;;
61254;SDS011;47128;47.530;8.584;2024-01-27T07:52:50;46.47;;;6.82;;
61254;SDS011;47128;47.530;8.584;2024-01-27T07:55:16;60.42;;;7.55;;
61254;SDS011;47128;47.530;8.584;2024-01-27T07:57:42;70.38;;;9.15;;
61254;SDS011;47128;47.530;8.584;2024-01-27T08:00:08;69.38;;;14.10;;
61254;SDS011;47128;47.530;8.584;2024-01-27T08:02:35;158.27;;;18.98;;
61254;SDS011;47128;47.530;8.584;2024-01-27T08:05:02;107.97;;;19.80;;
61254;SDS011;47128;47.530;8.584;2024-01-27T08:07:28;65.38;;;9.38;;
61254;SDS011;47128;47.530;8.584;2024-01-27T08:09:54;51.75;;;5.28;;
61254;SDS011;47128;47.530;8.584;2024-01-27T08:12:22;98.60;;;13.20;;
61254;SDS011;47128;47.530;8.584;2024-01-27T08:14:48;66.32;;;7.25;;
61254;SDS011;47128;47.530;8.584;2024-01-27T08:17:14;62.28;;;6.68;;
61254;SDS011;47128;47.530;8.584;2024-01-27T08:19:40;50.75;;;6.60;;
61254;SDS011;47128;47.530;8.584;2024-01-27T08:22:06;40.40;;;7.68;;
61254;SDS011;47128;47.530;8.584;2024-01-27T08:24:34;28.48;;;5.85;;
61254;SDS011;47128;47.530;8.584;2024-01-27T08:27:00;67.20;;;8.05;;
61254;SDS011;47128;47.530;8.584;2024-01-27T08:29:26;101.07;;;11.20;;
61254;SDS011;47128;47.530;8.584;2024-01-27T08:31:52;58.65;;;10.18;;
61254;SDS011;47128;47.530;8.584;2024-01-27T08:34:18;44.15;;;7.32;;
61254;SDS011;47128;47.530;8.584;2024-01-27T08:36:44;49.85;;;7.93;;
61254;SDS011;47128;47.530;8.584;2024-01-27T08:39:10;32.53;;;7.80;;
61254;SDS011;47128;47.530;8.584;2024-01-27T08:41:37;27.45;;;6.65;;
61254;SDS011;47128;47.530;8.584;2024-01-27T08:44:03;18.00;;;6.38;;
61254;SDS011;47128;47.530;8.584;2024-01-27T08:46:29;17.80;;;6.50;;
61254;SDS011;47128;47.530;8.584;2024-01-27T08:48:55;15.30;;;5.75;;
61254;SDS011;47128;47.530;8.584;2024-01-27T08:51:21;22.30;;;5.72;;
61254;SDS011;47128;47.530;8.584;2024-01-27T08:53:47;21.75;;;6.20;;
61254;SDS011;47128;47.530;8.584;2024-01-27T08:56:14;22.63;;;5.97;;
61254;SDS011;47128;47.530;8.584;2024-01-27T08:58:41;18.05;;;5.93;;
61254;SDS011;47128;47.530;8.584;2024-01-27T09:01:08;21.52;;;6.45;;
61254;SDS011;47128;47.530;8.584;2024-01-27T09:03:34;21.58;;;5.45;;
61254;SDS011;47128;47.530;8.584;2024-01-27T09:06:00;17.77;;;5.68;;
61254;SDS011;47128;47.530;8.584;2024-01-27T09:08:26;18.00;;;6.60;;
61254;SDS011;47128;47.530;8.584;2024-01-27T09:10:52;24.27;;;6.15;;
61254;SDS011;47128;47.530;8.584;2024-01-27T09:13:18;34.03;;;7.05;;
61254;SDS011;47128;47.530;8.584;2024-01-27T09:15:44;14.40;;;6.63;;
61254;SDS011;47128;47.530;8.584;2024-01-27T09:18:10;8.10;;;4.10;;
61254;SDS011;47128;47.530;8.584;2024-01-27T09:20:36;6.65;;;4.70;;
61254;SDS011;47128;47.530;8.584;2024-01-27T09:23:02;7.03;;;4.10;;
61254;SDS011;47128;47.530;8.584;2024-01-27T09:25:28;5.80;;;3.75;;
61254;SDS011;47128;47.530;8.584;2024-01-27T09:27:56;6.95;;;4.25;;
61254;SDS011;47128;47.530;8.584;2024-01-27T09:30:25;13.15;;;5.13;;
61254;SDS011;47128;47.530;8.584;2024-01-27T09:32:51;8.95;;;5.57;;
61254;SDS011;47128;47.530;8.584;2024-01-27T09:35:17;11.00;;;5.63;;
61254;SDS011;47128;47.530;8.584;2024-01-27T09:37:45;8.05;;;4.63;;
61254;SDS011;47128;47.530;8.584;2024-01-27T09:40:11;8.38;;;5.30;;
61254;SDS011;47128;47.530;8.584;2024-01-27T09:42:38;8.48;;;5.18;;
61254;SDS011;47128;47.530;8.584;2024-01-27T09:45:08;8.45;;;5.32;;
61254;SDS011;47128;47.530;8.584;2024-01-27T09:47:35;9.60;;;5.18;;
61254;SDS011;47128;47.530;8.584;2024-01-27T09:50:01;9.02;;;5.35;;
61254;SDS011;47128;47.530;8.584;2024-01-27T09:52:27;9.18;;;4.80;;
61254;SDS011;47128;47.530;8.584;2024-01-27T09:54:53;7.93;;;4.50;;
61254;SDS011;47128;47.530;8.584;2024-01-27T09:57:19;8.70;;;4.82;;
61254;SDS011;47128;47.530;8.584;2024-01-27T09:59:46;8.98;;;5.00;;
61254;SDS011;47128;47.530;8.584;2024-01-27T10:02:13;5.57;;;3.58;;
61254;SDS011;47128;47.530;8.584;2024-01-27T10:04:40;7.20;;;3.70;;
61254;SDS011;47128;47.530;8.584;2024-01-27T10:07:07;6.97;;;3.00;;
61254;SDS011;47128;47.530;8.584;2024-01-27T10:09:33;4.78;;;2.90;;
61254;SDS011;47128;47.530;8.584;2024-01-27T10:12:00;6.35;;;3.60;;
61254;SDS011;47128;47.530;8.584;2024-01-27T10:14:42;6.28;;;4.00;;
61254;SDS011;47128;47.530;8.584;2024-01-27T10:17:20;5.80;;;3.35;;
61254;SDS011;47128;47.530;8.584;2024-01-27T10:19:47;6.80;;;3.55;;
61254;SDS011;47128;47.530;8.584;2024-01-27T10:22:13;6.32;;;3.65;;
61254;SDS011;47128;47.530;8.584;2024-01-27T10:24:39;7.38;;;3.55;;
61254;SDS011;47128;47.530;8.584;2024-01-27T10:27:05;5.32;;;3.60;;
61254;SDS011;47128;47.530;8.584;2024-01-27T10:29:31;7.53;;;4.30;;
61254;SDS011;47128;47.530;8.584;2024-01-27T10:32:10;5.97;;;3.72;;
61254;SDS011;47128;47.530;8.584;2024-01-27T10:34:36;5.68;;;3.33;;
61254;SDS011;47128;47.530;8.584;2024-01-27T10:37:02;8.02;;;4.13;;
61254;SDS011;47128;47.530;8.584;2024-01-27T10:39:28;7.57;;;4.00;;
61254;SDS011;47128;47.530;8.584;2024-01-27T10:41:54;4.90;;;3.08;;
61254;SDS011;47128;47.530;8.584;2024-01-27T10:44:20;6.68;;;3.40;;
61254;SDS011;47128;47.530;8.584;2024-01-27T10:46:47;4.80;;;2.88;;
61254;SDS011;47128;47.530;8.584;2024-01-27T10:49:14;6.28;;;3.50;;
61254;SDS011;47128;47.530;8.584;2024-01-27T10:51:44;5.03;;;3.30;;
61254;SDS011;47128;47.530;8.584;2024-01-27T10:54:13;5.82;;;3.03;;
61254;SDS011;47128;47.530;8.584;2024-01-27T10:56:40;4.50;;;2.90;;
61254;SDS011;47128;47.530;8.584;2024-01-27T10:59:09;7.43;;;3.40;;
61254;SDS011;47128;47.530;8.584;2024-01-27T11:01:36;6.72;;;3.55;;
61254;SDS011;47128;47.530;8.584;2024-01-27T11:04:03;4.18;;;2.67;;
61254;SDS011;47128;47.530;8.584;2024-01-27T11:06:31;6.90;;;3.38;;
61254;SDS011;47128;47.530;8.584;2024-01-27T11:08:58;7.80;;;3.33;;
61254;SDS011;47128;47.530;8.584;2024-01-27T11:11:27;7.05;;;3.53;;
61254;SDS011;47128;47.530;8.584;2024-01-27T11:13:54;4.80;;;2.92;;
61254;SDS011;47128;47.530;8.584;2024-01-27T11:16:22;4.32;;;2.83;;
61254;SDS011;47128;47.530;8.584;2024-01-27T11:18:49;6.82;;;3.08;;
61254;SDS011;47128;47.530;8.584;2024-01-27T11:21:15;6.90;;;3.55;;
61254;SDS011;47128;47.530;8.584;2024-01-27T11:23:41;4.18;;;2.60;;
61254;SDS011;47128;47.530;8.584;2024-01-27T11:26:08;4.22;;;2.63;;
61254;SDS011;47128;47.530;8.584;2024-01-27T11:28:34;5.93;;;3.20;;
61254;SDS011;47128;47.530;8.584;2024-01-27T11:31:04;7.32;;;2.45;;
61254;SDS011;47128;47.530;8.584;2024-01-27T11:33:30;8.55;;;3.13;;
61254;SDS011;47128;47.530;8.584;2024-01-27T11:36:03;5.47;;;2.40;;
61254;SDS011;47128;47.530;8.584;2024-01-27T11:38:32;9.05;;;5.55;;
61254;SDS011;47128;47.530;8.584;2024-01-27T11:40:59;6.30;;;2.65;;
61254;SDS011;47128;47.530;8.584;2024-01-27T11:43:26;5.97;;;2.50;;
61254;SDS011;47128;47.530;8.584;2024-01-27T11:45:56;5.45;;;2.60;;
61254;SDS011;47128;47.530;8.584;2024-01-27T11:48:22;7.68;;;2.53;;
61254;SDS011;47128;47.530;8.584;2024-01-27T11:50:48;4.15;;;2.20;;
61254;SDS011;47128;47.530;8.584;2024-01-27T11:53:14;5.13;;;2.45;;
61254;SDS011;47128;47.530;8.584;2024-01-27T11:55:40;6.20;;;2.90;;
61254;SDS011;47128;47.530;8.584;2024-01-27T11:58:06;5.43;;;2.53;;
61254;SDS011;47128;47.530;8.584;2024-01-27T12:00:32;7.38;;;3.42;;
61254;SDS011;47128;47.530;8.584;2024-01-27T12:02:58;4.90;;;2.70;;
61254;SDS011;47128;47.530;8.584;2024-01-27T12:05:24;6.80;;;2.60;;
61254;SDS011;47128;47.530;8.584;2024-01-27T12:07:50;6.00;;;2.80;;
61254;SDS011;47128;47.530;8.584;2024-01-27T12:10:16;4.03;;;2.38;;
61254;SDS011;47128;47.530;8.584;2024-01-27T12:12:42;3.58;;;2.33;;
61254;SDS011;47128;47.530;8.584;2024-01-27T12:15:08;3.72;;;2.78;;
61254;SDS011;47128;47.530;8.584;2024-01-27T12:17:34;2.70;;;1.90;;
61254;SDS011;47128;47.530;8.584;2024-01-27T12:20:00;5.43;;;2.65;;
61254;SDS011;47128;47.530;8.584;2024-01-27T12:22:28;4.95;;;3.30;;
61254;SDS011;47128;47.530;8.584;2024-01-27T12:24:55;3.30;;;2.10;;
61254;SDS011;47128;47.530;8.584;2024-01-27T12:27:22;6.05;;;2.75;;
61254;SDS011;47128;47.530;8.584;2024-01-27T12:29:48;4.97;;;3.40;;
61254;SDS011;47128;47.530;8.584;2024-01-27T12:32:15;4.22;;;3.13;;
61254;SDS011;47128;47.530;8.584;2024-01-27T12:34:41;5.97;;;3.17;;
61254;SDS011;47128;47.530;8.584;2024-01-27T12:37:08;8.27;;;3.00;;
61254;SDS011;47128;47.530;8.584;2024-01-27T12:39:34;6.57;;;2.67;;
61254;SDS011;47128;47.530;8.584;2024-01-27T12:42:00;4.03;;;3.00;;
61254;SDS011;47128;47.530;8.584;2024-01-27T12:44:26;3.40;;;2.30;;
61254;SDS011;47128;47.530;8.584;2024-01-27T12:46:52;4.72;;;2.60;;
61254;SDS011;47128;47.530;8.584;2024-01-27T12:49:18;6.05;;;2.53;;
61254;SDS011;47128;47.530;8.584;2024-01-27T12:51:44;3.80;;;2.65;;
61254;SDS011;47128;47.530;8.584;2024-01-27T12:54:12;3.70;;;2.55;;
61254;SDS011;47128;47.530;8.584;2024-01-27T12:56:38;6.75;;;2.55;;
61254;SDS011;47128;47.530;8.584;2024-01-27T12:59:04;5.78;;;2.53;;
61254;SDS011;47128;47.530;8.584;2024-01-27T13:01:31;5.38;;;2.50;;
61254;SDS011;47128;47.530;8.584;2024-01-27T13:03:57;3.25;;;2.35;;
61254;SDS011;47128;47.530;8.584;2024-01-27T13:06:23;5.00;;;2.38;;
61254;SDS011;47128;47.530;8.584;2024-01-27T13:08:49;4.47;;;2.47;;
61254;SDS011;47128;47.530;8.584;2024-01-27T13:11:16;5.20;;;2.17;;
61254;SDS011;47128;47.530;8.584;2024-01-27T13:13:42;5.70;;;2.40;;
61254;SDS011;47128;47.530;8.584;2024-01-27T13:16:08;7.00;;;2.58;;
61254;SDS011;47128;47.530;8.584;2024-01-27T13:18:35;5.72;;;2.70;;
61254;SDS011;47128;47.530;8.584;2024-01-27T13:21:01;8.02;;;3.17;;
61254;SDS011;47128;47.530;8.584;2024-01-27T13:23:29;6.80;;;3.05;;
61254;SDS011;47128;47.530;8.584;2024-01-27T13:25:55;3.35;;;2.30;;
61254;SDS011;47128;47.530;8.584;2024-01-27T13:28:21;3.78;;;2.55;;
61254;SDS011;47128;47.530;8.584;2024-01-27T13:30:47;6.97;;;2.60;;
61254;SDS011;47128;47.530;8.584;2024-01-27T13:33:14;5.82;;;2.80;;
61254;SDS011;47128;47.530;8.584;2024-01-27T13:35:41;6.63;;;2.95;;
61254;SDS011;47128;47.530;8.584;2024-01-27T13:38:12;4.25;;;2.78;;
61254;SDS011;47128;47.530;8.584;2024-01-27T13:40:38;5.82;;;2.80;;
61254;SDS011;47128;47.530;8.584;2024-01-27T13:43:04;5.68;;;3.50;;
61254;SDS011;47128;47.530;8.584;2024-01-27T13:45:30;6.35;;;3.10;;
61254;SDS011;47128;47.530;8.584;2024-01-27T13:47:57;4.57;;;2.80;;
61254;SDS011;47128;47.530;8.584;2024-01-27T13:50:23;3.78;;;2.63;;
61254;SDS011;47128;47.530;8.584;2024-01-27T13:52:50;6.35;;;2.83;;
61254;SDS011;47128;47.530;8.584;2024-01-27T13:55:16;6.82;;;2.90;;
61254;SDS011;47128;47.530;8.584;2024-01-27T13:57:43;7.05;;;2.95;;
61254;SDS011;47128;47.530;8.584;2024-01-27T14:00:09;7.18;;;2.78;;
61254;SDS011;47128;47.530;8.584;2024-01-27T14:02:36;7.28;;;2.60;;
61254;SDS011;47128;47.530;8.584;2024-01-27T14:05:02;6.47;;;2.55;;
61254;SDS011;47128;47.530;8.584;2024-01-27T14:07:29;2.97;;;2.40;;
61254;SDS011;47128;47.530;8.584;2024-01-27T14:09:55;5.78;;;2.63;;
61254;SDS011;47128;47.530;8.584;2024-01-27T14:12:21;4.43;;;2.42;;
61254;SDS011;47128;47.530;8.584;2024-01-27T14:14:48;3.83;;;2.53;;
61254;SDS011;47128;47.530;8.584;2024-01-27T14:17:15;6.68;;;2.30;;
61254;SDS011;47128;47.530;8.584;2024-01-27T14:19:41;5.93;;;2.40;;
61254;SDS011;47128;47.530;8.584;2024-01-27T14:22:07;7.60;;;2.53;;
61254;SDS011;47128;47.530;8.584;2024-01-27T14:24:33;6.63;;;2.42;;
61254;SDS011;47128;47.530;8.584;2024-01-27T14:26:59;5.60;;;2.60;;
61254;SDS011;47128;47.530;8.584;2024-01-27T14:29:26;8.05;;;2.67;;
61254;SDS011;47128;47.530;8.584;2024-01-27T14:31:52;4.63;;;2.80;;
61254;SDS011;47128;47.530;8.584;2024-01-27T14:34:18;4.25;;;2.38;;
61254;SDS011;47128;47.530;8.584;2024-01-27T14:36:44;7.30;;;2.35;;